sensor_id;sensor_type;location;lat;lon;timestamp;temperature;humidity
10889;DHT22;5497;51.388;6.780;2022-11-27T00:01:59;6.40;99.90
10889;DHT22;5497;51.388;6.780;2022-11-27T00:04:26;6.50;99.90
10889;DHT22;5497;51.388;6.780;2022-11-27T00:06:53;6.50;99.90
10889;DHT22;5497;51.388;6.780;2022-11-27T00:09:19;6.50;99.90
10889;DHT22;5497;51.388;6.780;2022-11-27T00:11:46;6.50;99.90
10889;DHT22;5497;51.388;6.780;2022-11-27T00:14:14;6.40;99.90
10889;DHT22;5497;51.388;6.780;2022-11-27T00:16:41;6.40;99.90
10889;DHT22;5497;51.388;6.780;2022-11-27T00:19:09;6.40;99.90
10889;DHT22;5497;51.388;6.780;2022-11-27T00:21:37;6.40;99.90
10889;DHT22;5497;51.388;6.780;2022-11-27T00:24:04;6.40;99.90
10889;DHT22;5497;51.388;6.780;2022-11-27T00:26:31;6.40;99.90
10889;DHT22;5497;51.388;6.780;2022-11-27T00:28:59;6.40;99.90
10889;DHT22;5497;51.388;6.780;2022-11-27T00:31:28;6.40;99.90
10889;DHT22;5497;51.388;6.780;2022-11-27T00:33:55;6.40;99.90
10889;DHT22;5497;51.388;6.780;2022-11-27T00:36:25;6.40;99.90
10889;DHT22;5497;51.388;6.780;2022-11-27T00:38:52;6.40;99.90
10889;DHT22;5497;51.388;6.780;2022-11-27T00:41:19;6.40;99.90
10889;DHT22;5497;51.388;6.780;2022-11-27T00:43:47;6.40;99.90
10889;DHT22;5497;51.388;6.780;2022-11-27T00:46:14;6.40;99.90
10889;DHT22;5497;51.388;6.780;2022-11-27T00:48:41;6.40;99.90
10889;DHT22;5497;51.388;6.780;2022-11-27T00:51:08;6.40;99.90
10889;DHT22;5497;51.388;6.780;2022-11-27T00:53:37;6.30;99.90
10889;DHT22;5497;51.388;6.780;2022-11-27T00:56:04;6.30;99.90
10889;DHT22;5497;51.388;6.780;2022-11-27T00:58:31;6.30;99.90
10889;DHT22;5497;51.388;6.780;2022-11-27T01:00:58;6.30;99.90
10889;DHT22;5497;51.388;6.780;2022-11-27T01:03:26;6.40;99.90
10889;DHT22;5497;51.388;6.780;2022-11-27T01:05:52;6.40;99.90
10889;DHT22;5497;51.388;6.780;2022-11-27T01:08:20;6.40;99.90
10889;DHT22;5497;51.388;6.780;2022-11-27T01:10:48;6.30;99.90
10889;DHT22;5497;51.388;6.780;2022-11-27T01:13:15;6.30;99.90
10889;DHT22;5497;51.388;6.780;2022-11-27T01:15:42;6.30;99.90
10889;DHT22;5497;51.388;6.780;2022-11-27T01:18:10;6.30;99.90
10889;DHT22;5497;51.388;6.780;2022-11-27T01:20:37;6.30;99.90
10889;DHT22;5497;51.388;6.780;2022-11-27T01:23:04;6.30;99.90
10889;DHT22;5497;51.388;6.780;2022-11-27T01:25:32;6.30;99.90
10889;DHT22;5497;51.388;6.780;2022-11-27T01:28:00;6.20;99.90
10889;DHT22;5497;51.388;6.780;2022-11-27T01:30:27;6.30;99.90
10889;DHT22;5497;51.388;6.780;2022-11-27T01:32:54;6.30;99.90
10889;DHT22;5497;51.388;6.780;2022-11-27T01:35:20;6.30;99.90
10889;DHT22;5497;51.388;6.780;2022-11-27T01:37:48;6.20;99.90
10889;DHT22;5497;51.388;6.780;2022-11-27T01:40:15;6.20;99.90
10889;DHT22;5497;51.388;6.780;2022-11-27T01:42:43;6.30;99.90
10889;DHT22;5497;51.388;6.780;2022-11-27T01:45:11;6.20;99.90
10889;DHT22;5497;51.388;6.780;2022-11-27T01:47:42;6.20;99.90
10889;DHT22;5497;51.388;6.780;2022-11-27T01:50:12;6.20;99.90
10889;DHT22;5497;51.388;6.780;2022-11-27T01:52:41;6.20;99.90
10889;DHT22;5497;51.388;6.780;2022-11-27T01:55:11;6.20;99.90
10889;DHT22;5497;51.388;6.780;2022-11-27T01:57:44;6.20;99.90
10889;DHT22;5497;51.388;6.780;2022-11-27T02:00:14;6.20;99.90
10889;DHT22;5497;51.388;6.780;2022-11-27T02:02:42;6.20;99.90
10889;DHT22;5497;51.388;6.780;2022-11-27T02:05:11;6.10;99.90
10889;DHT22;5497;51.388;6.780;2022-11-27T02:07:46;6.10;99.90
10889;DHT22;5497;51.388;6.780;2022-11-27T02:10:13;6.10;99.90
10889;DHT22;5497;51.388;6.780;2022-11-27T02:12:43;6.10;99.90
10889;DHT22;5497;51.388;6.780;2022-11-27T02:15:16;6.10;99.90
10889;DHT22;5497;51.388;6.780;2022-11-27T02:17:46;6.10;99.90
10889;DHT22;5497;51.388;6.780;2022-11-27T02:20:22;6.10;99.90
10889;DHT22;5497;51.388;6.780;2022-11-27T02:22:56;6.10;99.90
10889;DHT22;5497;51.388;6.780;2022-11-27T02:25:27;6.10;99.90
10889;DHT22;5497;51.388;6.780;2022-11-27T02:28:00;6.10;99.90
10889;DHT22;5497;51.388;6.780;2022-11-27T02:30:32;6.00;99.90
10889;DHT22;5497;51.388;6.780;2022-11-27T02:33:00;6.00;99.90
10889;DHT22;5497;51.388;6.780;2022-11-27T02:35:29;6.00;99.90
10889;DHT22;5497;51.388;6.780;2022-11-27T02:37:58;6.00;99.90
10889;DHT22;5497;51.388;6.780;2022-11-27T02:40:28;6.00;99.90
10889;DHT22;5497;51.388;6.780;2022-11-27T02:42:57;6.00;99.90
10889;DHT22;5497;51.388;6.780;2022-11-27T02:45:25;5.90;99.90
10889;DHT22;5497;51.388;6.780;2022-11-27T02:47:55;5.90;99.90
10889;DHT22;5497;51.388;6.780;2022-11-27T02:50:23;5.90;99.90
10889;DHT22;5497;51.388;6.780;2022-11-27T02:52:50;5.90;99.90
10889;DHT22;5497;51.388;6.780;2022-11-27T02:55:21;5.90;99.90
10889;DHT22;5497;51.388;6.780;2022-11-27T02:57:48;5.80;99.90
10889;DHT22;5497;51.388;6.780;2022-11-27T03:00:16;5.80;99.90
10889;DHT22;5497;51.388;6.780;2022-11-27T03:02:45;5.80;99.90
10889;DHT22;5497;51.388;6.780;2022-11-27T03:05:16;5.90;99.90
10889;DHT22;5497;51.388;6.780;2022-11-27T03:07:46;5.70;99.90
10889;DHT22;5497;51.388;6.780;2022-11-27T03:10:15;5.80;99.90
10889;DHT22;5497;51.388;6.780;2022-11-27T03:12:44;5.80;99.90
10889;DHT22;5497;51.388;6.780;2022-11-27T03:15:11;5.80;99.90
10889;DHT22;5497;51.388;6.780;2022-11-27T03:17:40;5.80;99.90
10889;DHT22;5497;51.388;6.780;2022-11-27T03:20:12;5.80;99.90
10889;DHT22;5497;51.388;6.780;2022-11-27T03:22:41;5.80;99.90
10889;DHT22;5497;51.388;6.780;2022-11-27T03:25:08;5.70;99.90
10889;DHT22;5497;51.388;6.780;2022-11-27T03:27:37;5.70;99.90
10889;DHT22;5497;51.388;6.780;2022-11-27T03:30:08;5.70;99.90
10889;DHT22;5497;51.388;6.780;2022-11-27T03:32:35;5.70;99.90
10889;DHT22;5497;51.388;6.780;2022-11-27T03:35:02;5.70;99.90
10889;DHT22;5497;51.388;6.780;2022-11-27T03:37:30;5.70;99.90
10889;DHT22;5497;51.388;6.780;2022-11-27T03:39:59;5.80;99.90
10889;DHT22;5497;51.388;6.780;2022-11-27T03:42:26;5.80;99.90
10889;DHT22;5497;51.388;6.780;2022-11-27T03:44:56;5.80;99.90
10889;DHT22;5497;51.388;6.780;2022-11-27T03:47:31;5.80;99.90
10889;DHT22;5497;51.388;6.780;2022-11-27T03:50:04;5.90;99.90
10889;DHT22;5497;51.388;6.780;2022-11-27T03:52:33;5.90;99.90
10889;DHT22;5497;51.388;6.780;2022-11-27T03:55:04;5.90;99.90
10889;DHT22;5497;51.388;6.780;2022-11-27T03:57:34;5.90;99.90
10889;DHT22;5497;51.388;6.780;2022-11-27T04:00:04;5.90;99.90
10889;DHT22;5497;51.388;6.780;2022-11-27T04:02:37;5.90;99.90
10889;DHT22;5497;51.388;6.780;2022-11-27T04:05:04;5.90;99.90
10889;DHT22;5497;51.388;6.780;2022-11-27T04:07:31;5.90;99.90
10889;DHT22;5497;51.388;6.780;2022-11-27T04:09:58;6.00;99.90
10889;DHT22;5497;51.388;6.780;2022-11-27T04:12:26;6.00;99.90
10889;DHT22;5497;51.388;6.780;2022-11-27T04:14:53;6.00;99.90
10889;DHT22;5497;51.388;6.780;2022-11-27T04:17:19;6.00;99.90
10889;DHT22;5497;51.388;6.780;2022-11-27T04:19:46;6.10;99.90
10889;DHT22;5497;51.388;6.780;2022-11-27T04:22:13;6.10;99.90
10889;DHT22;5497;51.388;6.780;2022-11-27T04:24:39;6.20;99.90
10889;DHT22;5497;51.388;6.780;2022-11-27T04:27:06;6.20;99.90
10889;DHT22;5497;51.388;6.780;2022-11-27T04:29:34;6.20;99.90
10889;DHT22;5497;51.388;6.780;2022-11-27T04:32:02;6.30;99.90
10889;DHT22;5497;51.388;6.780;2022-11-27T04:34:29;6.30;99.90
10889;DHT22;5497;51.388;6.780;2022-11-27T04:36:55;6.30;99.90
10889;DHT22;5497;51.388;6.780;2022-11-27T04:39:22;6.40;99.90
10889;DHT22;5497;51.388;6.780;2022-11-27T04:41:49;6.30;99.90
10889;DHT22;5497;51.388;6.780;2022-11-27T04:44:16;6.40;99.90
10889;DHT22;5497;51.388;6.780;2022-11-27T04:46:44;6.40;99.90
10889;DHT22;5497;51.388;6.780;2022-11-27T04:49:11;6.40;99.90
10889;DHT22;5497;51.388;6.780;2022-11-27T04:51:37;6.40;99.90
10889;DHT22;5497;51.388;6.780;2022-11-27T04:54:04;6.50;99.90
10889;DHT22;5497;51.388;6.780;2022-11-27T04:56:31;6.50;99.90
10889;DHT22;5497;51.388;6.780;2022-11-27T04:58:57;6.50;99.90
10889;DHT22;5497;51.388;6.780;2022-11-27T05:01:24;6.50;99.90
10889;DHT22;5497;51.388;6.780;2022-11-27T05:03:52;6.50;99.90
10889;DHT22;5497;51.388;6.780;2022-11-27T05:06:19;6.50;99.90
10889;DHT22;5497;51.388;6.780;2022-11-27T05:08:48;6.50;99.90
10889;DHT22;5497;51.388;6.780;2022-11-27T05:11:15;6.50;99.90
10889;DHT22;5497;51.388;6.780;2022-11-27T05:13:43;6.50;99.90
10889;DHT22;5497;51.388;6.780;2022-11-27T05:16:10;6.50;99.90
10889;DHT22;5497;51.388;6.780;2022-11-27T05:18:36;6.60;99.90
10889;DHT22;5497;51.388;6.780;2022-11-27T05:21:05;6.60;99.90
10889;DHT22;5497;51.388;6.780;2022-11-27T05:23:32;6.60;99.90
10889;DHT22;5497;51.388;6.780;2022-11-27T05:25:59;6.60;99.90
10889;DHT22;5497;51.388;6.780;2022-11-27T05:28:27;6.60;99.90
10889;DHT22;5497;51.388;6.780;2022-11-27T05:30:54;6.60;99.90
10889;DHT22;5497;51.388;6.780;2022-11-27T05:33:21;6.60;99.90
10889;DHT22;5497;51.388;6.780;2022-11-27T05:35:48;6.60;99.90
10889;DHT22;5497;51.388;6.780;2022-11-27T05:38:16;6.60;99.90
10889;DHT22;5497;51.388;6.780;2022-11-27T05:40:42;6.60;99.90
10889;DHT22;5497;51.388;6.780;2022-11-27T05:43:09;6.70;99.90
10889;DHT22;5497;51.388;6.780;2022-11-27T05:45:36;6.70;99.90
10889;DHT22;5497;51.388;6.780;2022-11-27T05:48:03;6.70;99.90
10889;DHT22;5497;51.388;6.780;2022-11-27T05:50:30;6.60;99.90
10889;DHT22;5497;51.388;6.780;2022-11-27T05:52:57;6.70;99.90
10889;DHT22;5497;51.388;6.780;2022-11-27T05:55:25;6.70;99.90
10889;DHT22;5497;51.388;6.780;2022-11-27T05:57:52;6.70;99.90
10889;DHT22;5497;51.388;6.780;2022-11-27T06:00:19;6.60;99.90
10889;DHT22;5497;51.388;6.780;2022-11-27T06:02:46;6.70;99.90
10889;DHT22;5497;51.388;6.780;2022-11-27T06:05:13;6.70;99.90
10889;DHT22;5497;51.388;6.780;2022-11-27T06:07:39;6.70;99.90
10889;DHT22;5497;51.388;6.780;2022-11-27T06:10:06;6.60;99.90
10889;DHT22;5497;51.388;6.780;2022-11-27T06:12:34;6.70;99.90
10889;DHT22;5497;51.388;6.780;2022-11-27T06:15:01;6.70;99.90
10889;DHT22;5497;51.388;6.780;2022-11-27T06:17:28;6.70;99.90
10889;DHT22;5497;51.388;6.780;2022-11-27T06:19:55;6.70;99.90
10889;DHT22;5497;51.388;6.780;2022-11-27T06:22:22;6.70;99.90
10889;DHT22;5497;51.388;6.780;2022-11-27T06:24:49;6.80;99.90
10889;DHT22;5497;51.388;6.780;2022-11-27T06:27:15;6.80;99.90
10889;DHT22;5497;51.388;6.780;2022-11-27T06:29:44;6.80;99.90
10889;DHT22;5497;51.388;6.780;2022-11-27T06:32:10;6.80;99.90
10889;DHT22;5497;51.388;6.780;2022-11-27T06:34:37;6.80;99.90
10889;DHT22;5497;51.388;6.780;2022-11-27T06:37:04;6.90;99.90
10889;DHT22;5497;51.388;6.780;2022-11-27T06:39:30;6.90;99.90
10889;DHT22;5497;51.388;6.780;2022-11-27T06:41:57;6.90;99.90
10889;DHT22;5497;51.388;6.780;2022-11-27T06:44:24;6.80;99.90
10889;DHT22;5497;51.388;6.780;2022-11-27T06:46:54;6.90;99.90
10889;DHT22;5497;51.388;6.780;2022-11-27T06:49:20;6.90;99.90
10889;DHT22;5497;51.388;6.780;2022-11-27T06:51:48;6.90;99.90
10889;DHT22;5497;51.388;6.780;2022-11-27T06:54:15;6.90;99.90
10889;DHT22;5497;51.388;6.780;2022-11-27T06:56:42;6.90;99.90
10889;DHT22;5497;51.388;6.780;2022-11-27T06:59:09;6.90;99.90
10889;DHT22;5497;51.388;6.780;2022-11-27T07:01:37;6.90;99.90
10889;DHT22;5497;51.388;6.780;2022-11-27T07:04:05;6.90;99.90
10889;DHT22;5497;51.388;6.780;2022-11-27T07:06:31;6.90;99.90
10889;DHT22;5497;51.388;6.780;2022-11-27T07:08:58;6.90;99.90
10889;DHT22;5497;51.388;6.780;2022-11-27T07:11:25;7.00;99.90
10889;DHT22;5497;51.388;6.780;2022-11-27T07:13:53;7.00;99.90
10889;DHT22;5497;51.388;6.780;2022-11-27T07:16:20;7.00;99.90
10889;DHT22;5497;51.388;6.780;2022-11-27T07:18:47;7.00;99.90
10889;DHT22;5497;51.388;6.780;2022-11-27T07:21:16;7.00;99.90
10889;DHT22;5497;51.388;6.780;2022-11-27T07:23:43;7.10;99.90
10889;DHT22;5497;51.388;6.780;2022-11-27T07:26:10;7.10;99.90
10889;DHT22;5497;51.388;6.780;2022-11-27T07:28:38;7.10;99.90
10889;DHT22;5497;51.388;6.780;2022-11-27T07:31:05;7.20;99.90
10889;DHT22;5497;51.388;6.780;2022-11-27T07:33:31;7.20;99.90
10889;DHT22;5497;51.388;6.780;2022-11-27T07:35:58;7.20;99.90
10889;DHT22;5497;51.388;6.780;2022-11-27T07:38:27;7.30;99.90
10889;DHT22;5497;51.388;6.780;2022-11-27T07:40:53;7.30;99.90
10889;DHT22;5497;51.388;6.780;2022-11-27T07:43:20;7.30;99.90
10889;DHT22;5497;51.388;6.780;2022-11-27T07:45:50;7.40;99.90
10889;DHT22;5497;51.388;6.780;2022-11-27T07:48:17;7.40;99.90
10889;DHT22;5497;51.388;6.780;2022-11-27T07:50:44;7.40;99.90
10889;DHT22;5497;51.388;6.780;2022-11-27T07:53:11;7.50;99.90
10889;DHT22;5497;51.388;6.780;2022-11-27T07:55:39;7.50;99.90
10889;DHT22;5497;51.388;6.780;2022-11-27T07:58:05;7.50;99.90
10889;DHT22;5497;51.388;6.780;2022-11-27T08:00:32;7.60;99.90
10889;DHT22;5497;51.388;6.780;2022-11-27T08:03:00;7.60;99.90
10889;DHT22;5497;51.388;6.780;2022-11-27T08:05:27;7.70;99.90
10889;DHT22;5497;51.388;6.780;2022-11-27T08:07:54;7.80;99.90
10889;DHT22;5497;51.388;6.780;2022-11-27T08:10:22;7.80;99.90
10889;DHT22;5497;51.388;6.780;2022-11-27T08:12:50;7.90;99.90
10889;DHT22;5497;51.388;6.780;2022-11-27T08:15:18;8.00;99.90
10889;DHT22;5497;51.388;6.780;2022-11-27T08:17:45;8.10;99.90
10889;DHT22;5497;51.388;6.780;2022-11-27T08:20:12;8.20;99.90
10889;DHT22;5497;51.388;6.780;2022-11-27T08:22:39;8.30;99.90
10889;DHT22;5497;51.388;6.780;2022-11-27T08:25:07;8.40;99.90
10889;DHT22;5497;51.388;6.780;2022-11-27T08:27:34;8.50;99.90
10889;DHT22;5497;51.388;6.780;2022-11-27T08:30:02;8.70;99.90
10889;DHT22;5497;51.388;6.780;2022-11-27T08:32:29;8.70;99.90
10889;DHT22;5497;51.388;6.780;2022-11-27T08:34:56;8.80;99.90
10889;DHT22;5497;51.388;6.780;2022-11-27T08:37:23;8.90;99.90
10889;DHT22;5497;51.388;6.780;2022-11-27T08:39:50;8.90;99.90
10889;DHT22;5497;51.388;6.780;2022-11-27T08:42:17;9.00;99.90
10889;DHT22;5497;51.388;6.780;2022-11-27T08:44:43;9.00;99.90
10889;DHT22;5497;51.388;6.780;2022-11-27T08:47:12;9.00;99.90
10889;DHT22;5497;51.388;6.780;2022-11-27T08:49:41;9.10;99.90
10889;DHT22;5497;51.388;6.780;2022-11-27T08:52:07;9.10;99.90
10889;DHT22;5497;51.388;6.780;2022-11-27T08:54:34;9.20;99.90
10889;DHT22;5497;51.388;6.780;2022-11-27T08:57:01;9.30;99.90
10889;DHT22;5497;51.388;6.780;2022-11-27T08:59:28;9.40;99.90
10889;DHT22;5497;51.388;6.780;2022-11-27T09:01:55;9.40;99.90
10889;DHT22;5497;51.388;6.780;2022-11-27T09:04:23;9.40;99.90
10889;DHT22;5497;51.388;6.780;2022-11-27T09:06:49;9.50;99.90
10889;DHT22;5497;51.388;6.780;2022-11-27T09:09:16;9.40;99.90
10889;DHT22;5497;51.388;6.780;2022-11-27T09:11:43;9.40;99.90
10889;DHT22;5497;51.388;6.780;2022-11-27T09:14:10;9.40;99.90
10889;DHT22;5497;51.388;6.780;2022-11-27T09:16:37;9.40;99.90
10889;DHT22;5497;51.388;6.780;2022-11-27T09:19:05;9.40;99.90
10889;DHT22;5497;51.388;6.780;2022-11-27T09:21:33;9.40;99.90
10889;DHT22;5497;51.388;6.780;2022-11-27T09:24:00;9.50;99.90
10889;DHT22;5497;51.388;6.780;2022-11-27T09:26:27;9.50;99.90
10889;DHT22;5497;51.388;6.780;2022-11-27T09:28:54;9.60;99.90
10889;DHT22;5497;51.388;6.780;2022-11-27T09:31:22;9.70;99.90
10889;DHT22;5497;51.388;6.780;2022-11-27T09:33:50;9.90;99.90
10889;DHT22;5497;51.388;6.780;2022-11-27T09:36:17;9.90;99.90
10889;DHT22;5497;51.388;6.780;2022-11-27T09:38:45;9.90;99.90
10889;DHT22;5497;51.388;6.780;2022-11-27T09:41:21;10.00;99.90
10889;DHT22;5497;51.388;6.780;2022-11-27T09:43:52;10.20;99.90
10889;DHT22;5497;51.388;6.780;2022-11-27T09:46:23;10.20;99.90
10889;DHT22;5497;51.388;6.780;2022-11-27T09:48:50;10.20;99.90
10889;DHT22;5497;51.388;6.780;2022-11-27T09:51:20;10.20;99.90
10889;DHT22;5497;51.388;6.780;2022-11-27T09:53:51;10.40;99.90
10889;DHT22;5497;51.388;6.780;2022-11-27T09:56:18;10.40;99.90
10889;DHT22;5497;51.388;6.780;2022-11-27T09:58:46;10.40;99.90
10889;DHT22;5497;51.388;6.780;2022-11-27T10:01:14;10.40;99.90
10889;DHT22;5497;51.388;6.780;2022-11-27T10:03:42;10.50;99.90
10889;DHT22;5497;51.388;6.780;2022-11-27T10:06:14;10.50;99.90
10889;DHT22;5497;51.388;6.780;2022-11-27T10:08:46;10.60;99.90
10889;DHT22;5497;51.388;6.780;2022-11-27T10:11:19;10.60;99.90
10889;DHT22;5497;51.388;6.780;2022-11-27T10:13:56;10.60;99.90
10889;DHT22;5497;51.388;6.780;2022-11-27T10:16:29;10.60;99.90
10889;DHT22;5497;51.388;6.780;2022-11-27T10:18:58;10.60;99.90
10889;DHT22;5497;51.388;6.780;2022-11-27T10:21:30;10.60;99.90
10889;DHT22;5497;51.388;6.780;2022-11-27T10:24:00;10.70;99.90
10889;DHT22;5497;51.388;6.780;2022-11-27T10:26:30;10.80;99.90
10889;DHT22;5497;51.388;6.780;2022-11-27T10:29:01;10.70;99.90
10889;DHT22;5497;51.388;6.780;2022-11-27T10:31:33;10.80;99.90
10889;DHT22;5497;51.388;6.780;2022-11-27T10:34:03;10.70;99.90
10889;DHT22;5497;51.388;6.780;2022-11-27T10:36:33;10.70;99.90
10889;DHT22;5497;51.388;6.780;2022-11-27T10:39:01;10.70;99.90
10889;DHT22;5497;51.388;6.780;2022-11-27T10:41:32;10.70;99.90
10889;DHT22;5497;51.388;6.780;2022-11-27T10:44:10;10.70;99.90
10889;DHT22;5497;51.388;6.780;2022-11-27T10:46:42;10.70;99.90
10889;DHT22;5497;51.388;6.780;2022-11-27T10:49:09;10.60;99.90
10889;DHT22;5497;51.388;6.780;2022-11-27T10:51:36;10.60;99.90
10889;DHT22;5497;51.388;6.780;2022-11-27T10:54:06;10.50;99.90
10889;DHT22;5497;51.388;6.780;2022-11-27T10:56:46;10.40;99.90
10889;DHT22;5497;51.388;6.780;2022-11-27T10:59:19;10.30;99.90
10889;DHT22;5497;51.388;6.780;2022-11-27T11:01:48;10.30;99.90
10889;DHT22;5497;51.388;6.780;2022-11-27T11:04:19;10.30;99.90
10889;DHT22;5497;51.388;6.780;2022-11-27T11:06:46;10.30;99.90
10889;DHT22;5497;51.388;6.780;2022-11-27T11:09:15;10.30;99.90
10889;DHT22;5497;51.388;6.780;2022-11-27T11:11:43;10.20;99.90
10889;DHT22;5497;51.388;6.780;2022-11-27T11:14:15;10.20;99.90
10889;DHT22;5497;51.388;6.780;2022-11-27T11:16:42;10.20;99.90
10889;DHT22;5497;51.388;6.780;2022-11-27T11:19:19;10.20;99.90
10889;DHT22;5497;51.388;6.780;2022-11-27T11:21:46;10.20;99.90
10889;DHT22;5497;51.388;6.780;2022-11-27T11:24:14;10.20;99.90
10889;DHT22;5497;51.388;6.780;2022-11-27T11:26:45;10.20;99.90
10889;DHT22;5497;51.388;6.780;2022-11-27T11:29:17;10.20;99.90
10889;DHT22;5497;51.388;6.780;2022-11-27T11:31:49;10.20;99.90
10889;DHT22;5497;51.388;6.780;2022-11-27T11:34:17;10.20;99.90
10889;DHT22;5497;51.388;6.780;2022-11-27T11:36:53;10.40;99.90
10889;DHT22;5497;51.388;6.780;2022-11-27T11:39:21;10.30;99.90
10889;DHT22;5497;51.388;6.780;2022-11-27T11:41:51;10.40;99.90
10889;DHT22;5497;51.388;6.780;2022-11-27T11:44:19;10.40;99.90
10889;DHT22;5497;51.388;6.780;2022-11-27T11:46:50;10.50;99.90
10889;DHT22;5497;51.388;6.780;2022-11-27T11:49:22;10.60;99.90
10889;DHT22;5497;51.388;6.780;2022-11-27T11:51:56;10.70;99.90
10889;DHT22;5497;51.388;6.780;2022-11-27T11:54:33;10.80;99.90
10889;DHT22;5497;51.388;6.780;2022-11-27T11:59:48;11.00;99.90
10889;DHT22;5497;51.388;6.780;2022-11-27T12:02:25;11.10;99.90
10889;DHT22;5497;51.388;6.780;2022-11-27T12:05:00;11.20;99.90
10889;DHT22;5497;51.388;6.780;2022-11-27T12:07:34;11.20;99.90
10889;DHT22;5497;51.388;6.780;2022-11-27T12:10:07;11.30;99.90
10889;DHT22;5497;51.388;6.780;2022-11-27T12:12:43;11.30;99.90
10889;DHT22;5497;51.388;6.780;2022-11-27T12:15:15;11.30;99.90
10889;DHT22;5497;51.388;6.780;2022-11-27T12:17:47;11.30;99.90
10889;DHT22;5497;51.388;6.780;2022-11-27T12:20:18;11.40;99.90
10889;DHT22;5497;51.388;6.780;2022-11-27T12:25:31;11.40;99.90
10889;DHT22;5497;51.388;6.780;2022-11-27T12:28:04;11.50;99.90
10889;DHT22;5497;51.388;6.780;2022-11-27T12:30:42;11.60;99.90
10889;DHT22;5497;51.388;6.780;2022-11-27T12:36:06;11.70;99.90
10889;DHT22;5497;51.388;6.780;2022-11-27T12:38:43;11.70;99.90
10889;DHT22;5497;51.388;6.780;2022-11-27T12:41:20;11.70;99.90
10889;DHT22;5497;51.388;6.780;2022-11-27T12:43:51;11.70;99.90
10889;DHT22;5497;51.388;6.780;2022-11-27T12:46:25;11.70;99.90
10889;DHT22;5497;51.388;6.780;2022-11-27T12:48:55;11.70;99.90
10889;DHT22;5497;51.388;6.780;2022-11-27T12:51:24;11.70;99.90
10889;DHT22;5497;51.388;6.780;2022-11-27T12:53:53;11.60;99.90
10889;DHT22;5497;51.388;6.780;2022-11-27T12:56:21;11.60;99.90
10889;DHT22;5497;51.388;6.780;2022-11-27T12:58:52;11.50;99.90
10889;DHT22;5497;51.388;6.780;2022-11-27T13:01:22;11.50;99.90
10889;DHT22;5497;51.388;6.780;2022-11-27T13:03:54;11.40;99.90
10889;DHT22;5497;51.388;6.780;2022-11-27T13:06:25;11.70;99.90
10889;DHT22;5497;51.388;6.780;2022-11-27T13:08:53;11.40;99.90
10889;DHT22;5497;51.388;6.780;2022-11-27T13:11:24;11.40;99.90
10889;DHT22;5497;51.388;6.780;2022-11-27T13:13:54;11.40;99.90
10889;DHT22;5497;51.388;6.780;2022-11-27T13:16:24;11.40;99.90
10889;DHT22;5497;51.388;6.780;2022-11-27T13:18:53;11.40;99.90
10889;DHT22;5497;51.388;6.780;2022-11-27T13:21:30;11.40;99.90
10889;DHT22;5497;51.388;6.780;2022-11-27T13:23:58;11.40;99.90
10889;DHT22;5497;51.388;6.780;2022-11-27T13:26:27;11.40;99.90
10889;DHT22;5497;51.388;6.780;2022-11-27T13:28:57;11.40;99.90
10889;DHT22;5497;51.388;6.780;2022-11-27T13:31:26;11.40;99.90
10889;DHT22;5497;51.388;6.780;2022-11-27T13:33:56;11.30;99.90
10889;DHT22;5497;51.388;6.780;2022-11-27T13:36:26;11.30;99.90
10889;DHT22;5497;51.388;6.780;2022-11-27T13:38:56;11.30;99.90
10889;DHT22;5497;51.388;6.780;2022-11-27T13:41:29;12.30;99.90
10889;DHT22;5497;51.388;6.780;2022-11-27T13:43:58;11.40;99.90
10889;DHT22;5497;51.388;6.780;2022-11-27T13:46:26;11.40;99.90
10889;DHT22;5497;51.388;6.780;2022-11-27T13:48:56;12.30;99.90
10889;DHT22;5497;51.388;6.780;2022-11-27T13:51:26;11.30;99.90
10889;DHT22;5497;51.388;6.780;2022-11-27T13:53:53;11.40;99.90
10889;DHT22;5497;51.388;6.780;2022-11-27T13:56:32;11.30;99.90
10889;DHT22;5497;51.388;6.780;2022-11-27T13:59:01;11.20;99.90
10889;DHT22;5497;51.388;6.780;2022-11-27T14:01:38;11.20;99.90
10889;DHT22;5497;51.388;6.780;2022-11-27T14:04:05;11.10;99.90
10889;DHT22;5497;51.388;6.780;2022-11-27T14:06:32;11.00;99.90
10889;DHT22;5497;51.388;6.780;2022-11-27T14:09:00;11.00;99.90
10889;DHT22;5497;51.388;6.780;2022-11-27T14:11:31;10.90;99.90
10889;DHT22;5497;51.388;6.780;2022-11-27T14:14:09;10.90;99.90
10889;DHT22;5497;51.388;6.780;2022-11-27T14:16:37;10.80;99.90
10889;DHT22;5497;51.388;6.780;2022-11-27T14:19:20;10.80;99.90
10889;DHT22;5497;51.388;6.780;2022-11-27T14:21:49;10.70;99.90
10889;DHT22;5497;51.388;6.780;2022-11-27T14:24:24;10.70;99.90
10889;DHT22;5497;51.388;6.780;2022-11-27T14:26:51;10.70;99.90
10889;DHT22;5497;51.388;6.780;2022-11-27T14:29:20;10.60;99.90
10889;DHT22;5497;51.388;6.780;2022-11-27T14:31:54;10.60;99.90
10889;DHT22;5497;51.388;6.780;2022-11-27T14:34:25;10.60;99.90
10889;DHT22;5497;51.388;6.780;2022-11-27T14:36:52;10.60;99.90
10889;DHT22;5497;51.388;6.780;2022-11-27T14:39:20;10.60;99.90
10889;DHT22;5497;51.388;6.780;2022-11-27T14:41:54;10.60;99.90
10889;DHT22;5497;51.388;6.780;2022-11-27T14:44:22;10.60;99.90
10889;DHT22;5497;51.388;6.780;2022-11-27T14:46:49;10.50;99.90
10889;DHT22;5497;51.388;6.780;2022-11-27T14:49:16;10.50;99.90
10889;DHT22;5497;51.388;6.780;2022-11-27T14:51:44;10.40;99.90
10889;DHT22;5497;51.388;6.780;2022-11-27T14:54:12;10.30;99.90
10889;DHT22;5497;51.388;6.780;2022-11-27T14:56:42;10.30;99.90
10889;DHT22;5497;51.388;6.780;2022-11-27T14:59:10;10.10;99.90
10889;DHT22;5497;51.388;6.780;2022-11-27T15:01:40;10.10;99.90
10889;DHT22;5497;51.388;6.780;2022-11-27T15:04:24;10.10;99.90
10889;DHT22;5497;51.388;6.780;2022-11-27T15:06:51;10.00;99.90
10889;DHT22;5497;51.388;6.780;2022-11-27T15:09:19;9.90;99.90
10889;DHT22;5497;51.388;6.780;2022-11-27T15:11:48;9.90;99.90
10889;DHT22;5497;51.388;6.780;2022-11-27T15:14:16;9.80;99.90
10889;DHT22;5497;51.388;6.780;2022-11-27T15:16:44;9.80;99.90
10889;DHT22;5497;51.388;6.780;2022-11-27T15:19:12;9.80;99.90
10889;DHT22;5497;51.388;6.780;2022-11-27T15:21:42;9.80;99.90
10889;DHT22;5497;51.388;6.780;2022-11-27T15:24:19;9.80;99.90
10889;DHT22;5497;51.388;6.780;2022-11-27T15:26:48;9.80;99.90
10889;DHT22;5497;51.388;6.780;2022-11-27T15:29:24;9.70;99.90
10889;DHT22;5497;51.388;6.780;2022-11-27T15:31:57;9.70;99.90
10889;DHT22;5497;51.388;6.780;2022-11-27T15:34:24;9.80;99.90
10889;DHT22;5497;51.388;6.780;2022-11-27T15:36:56;9.80;99.90
10889;DHT22;5497;51.388;6.780;2022-11-27T15:39:24;9.70;99.90
10889;DHT22;5497;51.388;6.780;2022-11-27T15:41:52;9.80;99.90
10889;DHT22;5497;51.388;6.780;2022-11-27T15:44:19;9.80;99.90
10889;DHT22;5497;51.388;6.780;2022-11-27T15:46:47;9.80;99.90
10889;DHT22;5497;51.388;6.780;2022-11-27T15:49:16;9.80;99.90
10889;DHT22;5497;51.388;6.780;2022-11-27T15:51:44;9.80;99.90
10889;DHT22;5497;51.388;6.780;2022-11-27T15:54:11;9.80;99.90
10889;DHT22;5497;51.388;6.780;2022-11-27T15:56:38;9.80;99.90
10889;DHT22;5497;51.388;6.780;2022-11-27T15:59:05;9.80;99.90
10889;DHT22;5497;51.388;6.780;2022-11-27T16:01:32;9.80;99.90
10889;DHT22;5497;51.388;6.780;2022-11-27T16:03:59;9.80;99.90
10889;DHT22;5497;51.388;6.780;2022-11-27T16:06:27;9.80;99.90
10889;DHT22;5497;51.388;6.780;2022-11-27T16:08:56;9.80;99.90
10889;DHT22;5497;51.388;6.780;2022-11-27T16:11:23;9.70;99.90
10889;DHT22;5497;51.388;6.780;2022-11-27T16:13:50;9.70;99.90
10889;DHT22;5497;51.388;6.780;2022-11-27T16:16:17;9.70;99.90